Woody Richerson — WDF9621 — position and weather

sailwx.info

Track history (hours):
 
Tides and Currents Weather Stations Pressure Air Temp Water Temp Dewpoint Dewpoint Depression Visibility Wind Speed Wind Dir Waves Ship Positions

Woody Richerson

Owner: Florida Marine, LLC, Mandeville, LA. More information available from US FCC via Universal Licensing System and Coast Guard Vessel Documentation Center.

Last reported at 2015-Jun-24 00:20 UTC. Time now 2015-Jul-06 17:49 UTC.
Position N 29°27' W 094°51'.
Warning: this ship's position is 12 days out of date.

Length 27 m.

Type: Other ship. MMSI: 367507070.

Date/timePositionNaut miles runAvg speedWind from/ knotsBaromVisibWave heightAir tempDewpointWater temp
2015-Jun-24 00:20N 29°27' W 094°51'6 7.1
2015-Jun-23 23:33N 29°32' W 094°54'7 6.8
2015-Jun-23 22:33N 29°38' W 094°58'6 6.5
2015-Jun-23 21:33N 29°44' W 095°02'5 4.9
2015-Jun-23 20:32N 29°44' W 095°07'1 0.0
2015-Jun-22 19:31N 29°45' W 095°06'4 3.3
2015-Jun-22 18:24N 29°47' W 095°04'0 0.0
2015-Jun-22 16:31N 29°47' W 095°04'2 1.9
2015-Jun-22 15:33N 29°46' W 095°05'2 0.1
2015-Jun-21 23:25N 29°47' W 095°04'1 0.3
2015-Jun-21 19:22N 29°46' W 095°05'1 1.4
2015-Jun-21 18:30N 29°47' W 095°04'0 0.0
2015-Jun-21 17:33N 29°47' W 095°04'2 1.9
2015-Jun-21 16:33N 29°46' W 095°05'1 0.8
2015-Jun-21 15:16N 29°46' W 095°06'1 0.9
2015-Jun-21 14:27N 29°46' W 095°05'1 0.1
2015-Jun-21 08:29N 29°46' W 095°05'0 0.0
2015-Jun-21 07:24N 29°46' W 095°05'1 0.1
2015-Jun-20 20:29N 29°46' W 095°05'2 0.9
2015-Jun-20 18:33N 29°47' W 095°04'1 0.8
2015-Jun-20 17:32N 29°47' W 095°05'0 0.0
2015-Jun-20 16:32N 29°47' W 095°05'0 0.0
2015-Jun-20 15:33N 29°47' W 095°05'0 0.0
2015-Jun-20 14:22N 29°47' W 095°05'0 0.0
2015-Jun-20 11:09N 29°47' W 095°05'0 0.0
2015-Jun-20 10:17N 29°47' W 095°05'0 0.0
2015-Jun-20 09:31N 29°47' W 095°05'0 0.0
2015-Jun-20 08:31N 29°47' W 095°05'0 0.0
2015-Jun-20 07:21N 29°47' W 095°05'0 0.0
2015-Jun-20 06:32N 29°47' W 095°05'0 0.0
2015-Jun-20 05:28N 29°47' W 095°05'0 0.0
2015-Jun-20 04:33N 29°47' W 095°05'0 0.0
2015-Jun-20 03:22N 29°47' W 095°05'0 0.0
2015-Jun-20 02:29N 29°47' W 095°05'0 0.0
2015-Jun-20 01:23N 29°47' W 095°05'0 0.0
2015-Jun-20 00:33N 29°47' W 095°05'0 0.0
2015-Jun-19 23:27N 29°47' W 095°05'0 0.0
2015-Jun-19 22:31N 29°47' W 095°05'0 0.0
2015-Jun-19 21:33N 29°47' W 095°05'0 0.0
2015-Jun-19 20:20N 29°47' W 095°05'0 0.0
2015-Jun-19 19:33N 29°47' W 095°05'0 0.0
2015-Jun-19 18:33N 29°47' W 095°05'4 3.3
2015-Jun-19 17:29N 29°44' W 095°02'1 0.6
2015-Jun-19 16:33N 29°44' W 095°01'0 0.0
2015-Jun-19 15:33N 29°44' W 095°01'0 0.0
2015-Jun-19 14:33N 29°44' W 095°01'0 0.1
2015-Jun-19 13:11N 29°44' W 095°01'0 0.0
2015-Jun-19 08:18N 29°44' W 095°01'0 0.3
2015-Jun-19 07:33N 29°44' W 095°01'0 0.4
2015-Jun-19 06:31N 29°44' W 095°01'0 0.0
2015-Jun-19 05:33N 29°44' W 095°01'0 0.0
2015-Jun-19 04:33N 29°44' W 095°01'0 0.0
2015-Jun-19 03:33N 29°44' W 095°01'0 0.0
2015-Jun-19 02:33N 29°44' W 095°01'0 0.0
2015-Jun-19 01:33N 29°44' W 095°01'0 0.0
2015-Jun-19 00:33N 29°44' W 095°01'0 0.0
2015-Jun-18 23:33N 29°44' W 095°01'0 0.0
2015-Jun-18 22:33N 29°44' W 095°01'0 0.2
2015-Jun-18 20:33N 29°44' W 095°01'0 0.0
2015-Jun-18 19:33N 29°44' W 095°01'0 0.0
2015-Jun-18 18:33N 29°44' W 095°01'0 0.0
2015-Jun-18 17:33N 29°44' W 095°01'0 0.0
2015-Jun-18 16:33N 29°44' W 095°01'0 0.0
2015-Jun-18 15:15N 29°44' W 095°01'0 0.0
2015-Jun-18 14:33N 29°44' W 095°01'2 2.0
2015-Jun-18 13:33N 29°44' W 095°03'3 0.1
2015-Jun-17 17:22N 29°46' W 095°06'2 2.8
2015-Jun-17 16:33N 29°47' W 095°04'1 1.2
2015-Jun-17 15:33N 29°46' W 095°05'0 0.0
2015-Jun-16 08:08N 29°46' W 095°05'0 0.0
2015-Jun-15 15:32N 29°46' W 095°05'1 0.9
2015-Jun-15 14:31N 29°47' W 095°04'0 0.0
2015-Jun-15 13:33N 29°47' W 095°04'0 0.0
2015-Jun-15 12:33N 29°47' W 095°04'0 0.0
2015-Jun-15 11:22N 29°47' W 095°04'0 0.0
2015-Jun-15 10:30N 29°47' W 095°04'1 1.5
2015-Jun-15 09:33N 29°46' W 095°05'6 5.7
2015-Jun-15 08:33N 29°42' W 094°60'6 6.2
2015-Jun-15 07:33N 29°36' W 094°57'6 6.3
2015-Jun-15 06:33N 29°31' W 094°53'3 0.5
2015-Jun-15 01:23N 29°29' W 094°52'6 7.5
2015-Jun-15 00:33N 29°34' W 094°55'7 7.5
2015-Jun-14 23:33N 29°41' W 094°59'6 6.3
2015-Jun-14 22:33N 29°45' W 095°04'2 0.7
2015-Jun-14 19:32N 29°46' W 095°06'0 0.0
2015-Jun-14 17:16N 29°46' W 095°06'0 0.0
2015-Jun-14 16:33N 29°46' W 095°06'0 0.0
2015-Jun-14 14:33N 29°46' W 095°06'0 0.0
2015-Jun-14 13:28N 29°46' W 095°06'0 0.0
2015-Jun-14 12:27N 29°46' W 095°06'  
Track history (hours):
 
Tides and Currents Weather Stations Pressure Air Temp Water Temp Dewpoint Dewpoint Depression Visibility Wind Speed Wind Dir Waves Ship Positions

Woody Richerson

Owner: Florida Marine, LLC, Mandeville, LA. More information available from US FCC via Universal Licensing System and Coast Guard Vessel Documentation Center.

Last reported at 2015-Jun-24 00:20 UTC. Time now 2015-Jul-06 17:49 UTC.
Position N 29°27' W 094°51'.
Warning: this ship's position is 12 days out of date.

Length 27 m.

Type: Other ship. MMSI: 367507070.

Date/timePositionNaut miles runAvg speedWind from/ knotsBaromVisibWave heightAir tempDewpointWater temp
2015-Jun-24 00:20N 29°27' W 094°51'6 7.1
2015-Jun-23 23:33N 29°32' W 094°54'7 6.8
2015-Jun-23 22:33N 29°38' W 094°58'6 6.5
2015-Jun-23 21:33N 29°44' W 095°02'5 4.9
2015-Jun-23 20:32N 29°44' W 095°07'1 0.0
2015-Jun-22 19:31N 29°45' W 095°06'4 3.3
2015-Jun-22 18:24N 29°47' W 095°04'0 0.0
2015-Jun-22 16:31N 29°47' W 095°04'2 1.9
2015-Jun-22 15:33N 29°46' W 095°05'2 0.1
2015-Jun-21 23:25N 29°47' W 095°04'1 0.3
2015-Jun-21 19:22N 29°46' W 095°05'1 1.4
2015-Jun-21 18:30N 29°47' W 095°04'0 0.0
2015-Jun-21 17:33N 29°47' W 095°04'2 1.9
2015-Jun-21 16:33N 29°46' W 095°05'1 0.8
2015-Jun-21 15:16N 29°46' W 095°06'1 0.9
2015-Jun-21 14:27N 29°46' W 095°05'1 0.1
2015-Jun-21 08:29N 29°46' W 095°05'0 0.0
2015-Jun-21 07:24N 29°46' W 095°05'1 0.1
2015-Jun-20 20:29N 29°46' W 095°05'2 0.9
2015-Jun-20 18:33N 29°47' W 095°04'1 0.8
2015-Jun-20 17:32N 29°47' W 095°05'0 0.0
2015-Jun-20 16:32N 29°47' W 095°05'0 0.0
2015-Jun-20 15:33N 29°47' W 095°05'0 0.0
2015-Jun-20 14:22N 29°47' W 095°05'0 0.0
2015-Jun-20 11:09N 29°47' W 095°05'0 0.0
2015-Jun-20 10:17N 29°47' W 095°05'0 0.0
2015-Jun-20 09:31N 29°47' W 095°05'0 0.0
2015-Jun-20 08:31N 29°47' W 095°05'0 0.0
2015-Jun-20 07:21N 29°47' W 095°05'0 0.0
2015-Jun-20 06:32N 29°47' W 095°05'0 0.0
2015-Jun-20 05:28N 29°47' W 095°05'0 0.0
2015-Jun-20 04:33N 29°47' W 095°05'0 0.0
2015-Jun-20 03:22N 29°47' W 095°05'0 0.0
2015-Jun-20 02:29N 29°47' W 095°05'0 0.0
2015-Jun-20 01:23N 29°47' W 095°05'0 0.0
2015-Jun-20 00:33N 29°47' W 095°05'0 0.0
2015-Jun-19 23:27N 29°47' W 095°05'0 0.0
2015-Jun-19 22:31N 29°47' W 095°05'0 0.0
2015-Jun-19 21:33N 29°47' W 095°05'0 0.0
2015-Jun-19 20:20N 29°47' W 095°05'0 0.0
2015-Jun-19 19:33N 29°47' W 095°05'0 0.0
2015-Jun-19 18:33N 29°47' W 095°05'4 3.3
2015-Jun-19 17:29N 29°44' W 095°02'1 0.6
2015-Jun-19 16:33N 29°44' W 095°01'0 0.0
2015-Jun-19 15:33N 29°44' W 095°01'0 0.0
2015-Jun-19 14:33N 29°44' W 095°01'0 0.1
2015-Jun-19 13:11N 29°44' W 095°01'0 0.0
2015-Jun-19 08:18N 29°44' W 095°01'0 0.3
2015-Jun-19 07:33N 29°44' W 095°01'0 0.4
2015-Jun-19 06:31N 29°44' W 095°01'0 0.0
2015-Jun-19 05:33N 29°44' W 095°01'0 0.0
2015-Jun-19 04:33N 29°44' W 095°01'0 0.0
2015-Jun-19 03:33N 29°44' W 095°01'0 0.0
2015-Jun-19 02:33N 29°44' W 095°01'0 0.0
2015-Jun-19 01:33N 29°44' W 095°01'0 0.0
2015-Jun-19 00:33N 29°44' W 095°01'0 0.0
2015-Jun-18 23:33N 29°44' W 095°01'0 0.0
2015-Jun-18 22:33N 29°44' W 095°01'0 0.2
2015-Jun-18 20:33N 29°44' W 095°01'0 0.0
2015-Jun-18 19:33N 29°44' W 095°01'0 0.0
2015-Jun-18 18:33N 29°44' W 095°01'0 0.0
2015-Jun-18 17:33N 29°44' W 095°01'0 0.0
2015-Jun-18 16:33N 29°44' W 095°01'0 0.0
2015-Jun-18 15:15N 29°44' W 095°01'0 0.0
2015-Jun-18 14:33N 29°44' W 095°01'2 2.0
2015-Jun-18 13:33N 29°44' W 095°03'3 0.1
2015-Jun-17 17:22N 29°46' W 095°06'2 2.8
2015-Jun-17 16:33N 29°47' W 095°04'1 1.2
2015-Jun-17 15:33N 29°46' W 095°05'0 0.0
2015-Jun-16 08:08N 29°46' W 095°05'0 0.0
2015-Jun-15 15:32N 29°46' W 095°05'1 0.9
2015-Jun-15 14:31N 29°47' W 095°04'0 0.0
2015-Jun-15 13:33N 29°47' W 095°04'0 0.0
2015-Jun-15 12:33N 29°47' W 095°04'0 0.0
2015-Jun-15 11:22N 29°47' W 095°04'0 0.0
2015-Jun-15 10:30N 29°47' W 095°04'1 1.5
2015-Jun-15 09:33N 29°46' W 095°05'6 5.7
2015-Jun-15 08:33N 29°42' W 094°60'6 6.2
2015-Jun-15 07:33N 29°36' W 094°57'6 6.3
2015-Jun-15 06:33N 29°31' W 094°53'3 0.5
2015-Jun-15 01:23N 29°29' W 094°52'6 7.5
2015-Jun-15 00:33N 29°34' W 094°55'7 7.5
2015-Jun-14 23:33N 29°41' W 094°59'6 6.3
2015-Jun-14 22:33N 29°45' W 095°04'2 0.7
2015-Jun-14 19:32N 29°46' W 095°06'0 0.0
2015-Jun-14 17:16N 29°46' W 095°06'0 0.0
2015-Jun-14 16:33N 29°46' W 095°06'0 0.0
2015-Jun-14 14:33N 29°46' W 095°06'0 0.0
2015-Jun-14 13:28N 29°46' W 095°06'0 0.0
2015-Jun-14 12:27N 29°46' W 095°06'  

Dump ship's entire track history